LESA Airport Information

Runway Information
Runway 03 Length 8202 ft width 197 ft
Elevation 2595 ft Threshold 0 ft Heading 28
Runway 21 Length 8202 ft Width 197 ft
Elevation 2586 ft Threshold 0 ft Heading 208
Runway 08 Length 6594 ft width 400 ft
Elevation 2587 ft Threshold 0 ft Heading 74
Runway 26 Length 6594 ft Width 400 ft
Elevation 2588 ft Threshold 0 ft Heading 254
Airport Frequencies
Type APP Name APP Frequency 124.4 MHZ
Type GND Name GND Frequency 121.85 MHZ
Type TWR Name TWR Frequency 139.3 MHZ
Airport Navaids
Type VOR-DME Name Salamanca Frequency 112200 KHZ
Type NDB Name Salamanca Frequency 399 KHZ
Type NDB Name Salamanca Frequency 423 KHZ
Type TACAN Name Salamanca Frequency 113300 KHZ
Airport Weather Information & NOTAM
ADDS - METARS form results

(2042 UTC 23 February 2019)
Data provider http://aviationweather.gov/metar/data/
 
METAR text: LESA 232030Z AUTO 03003KT 7000 NCD 06/01 Q1031
Conditions at: LESA (SALAMANCA (CIV/M, ES) observed 2030 UTC 23 February 2019
Temperature: 6.0°C (43°F)
Dewpoint: 1.0°C (34°F) [RH = 70%]
Pressure (altimeter): 30.44 inches Hg (1031.0 mb)
Winds: from the NNE (30 degrees) at 3 MPH (3 knots; 1.5 m/s)
Visibility: 4 miles ( 7 km)
Ceiling: at least 12,000 feet AGL
Clouds: sky clear below 12,000 feet AGL
Weather: no significant weather observed at this time

METAR text: LESA 232000Z AUTO 02005KT 8000 NCD 08/01 Q1030
Conditions at: LESA (SALAMANCA (CIV/M, ES) observed 2000 UTC 23 February 2019
Temperature: 8.0°C (46°F)
Dewpoint: 1.0°C (34°F) [RH = 61%]
Pressure (altimeter): 30.41 inches Hg (1030.0 mb)
Winds: from the NNE (20 degrees) at 6 MPH (5 knots; 2.6 m/s)
Visibility: 5 miles ( 8 km)
Ceiling: at least 12,000 feet AGL
Clouds: sky clear below 12,000 feet AGL
Weather: no significant weather observed at this time

Forecast for: LESA (SALAMANCA (CIV/M, ES)
Text: TAF LESA 231700Z 2318/2418 VRB03KT CAVOK TX18/2415Z TNM01/2407Z
Forecast period: 1800 UTC 23 February 2019 to 1800 UTC 24 February 2019
Forecast type: FROM: standard forecast or significant change
Winds: variable direction winds at 3 MPH (3 knots; 1.5 m/s)
Visibility: 6 or more miles 10+ km)
Ceiling: unknown
Clouds: missing
Weather: no significant weather forecast for this period
Text: PROB30
Forecast period: 0500 to 0800 UTC 24 February 2019
Forecast type: TEMPORARY: The following changes expected for less than half the time period
Visibility: 0.37 miles (0.60 km)
Ceiling: unknown
Clouds: missing
Weather: FZFG  (freezing fog)